Time;durP1;ratioP1;P1;durP2;ratioP2;P2;SDS_P1;SDS_P2;PMS_P1;PMS_P2;Temp;Humidity;BMP_temperature;BMP_pressure;BME280_temperature;BME280_humidity;BME280_pressure;Samples;Min_cycle;Max_cycle;Signal;HPM_P1;HPM_P2
2022/04/19 00:01:27;;;;;;;4.10;3.77;;;;;;;;;;5073708;28;20874;-79
2022/04/19 00:03:54;;;;;;;4.10;3.80;;;;;;;;;;5073872;28;20456;-78
2022/04/19 00:06:22;;;;;;;4.77;4.37;;;;;;;;;;5080544;28;20479;-77
2022/04/19 00:08:51;;;;;;;6.50;5.70;;;;;;;;;;5094040;28;20448;-77
2022/04/19 00:11:19;;;;;;;4.80;4.40;;;;;;;;;;5094490;28;20480;-77
2022/04/19 00:13:46;;;;;;;4.53;4.13;;;;;;;;;;5092006;28;20891;-77
2022/04/19 00:16:14;;;;;;;5.60;4.30;;;;;;;;;;5094365;28;20795;-77
2022/04/19 00:18:41;;;;;;;5.33;4.93;;;;;;;;;;5095031;28;20469;-77
2022/04/19 00:21:08;;;;;;;5.43;4.93;;;;;;;;;;5094463;28;20447;-76
2022/04/19 00:23:36;;;;;;;7.33;4.80;;;;;;;;;;5094183;28;20432;-78
2022/04/19 00:26:04;;;;;;;5.07;4.63;;;;;;;;;;5094561;28;20962;-78
2022/04/19 00:28:31;;;;;;;5.93;4.03;;;;;;;;;;5093953;28;20885;-78
2022/04/19 00:30:58;;;;;;;6.83;4.80;;;;;;;;;;5093372;28;20479;-78
2022/04/19 00:33:27;;;;;;;5.70;5.17;;;;;;;;;;5093969;28;20458;-79
2022/04/19 00:35:54;;;;;;;5.00;4.57;;;;;;;;;;5092883;28;20941;-77
2022/04/19 00:38:21;;;;;;;6.37;4.87;;;;;;;;;;5092674;28;20461;-77
2022/04/19 00:40:49;;;;;;;5.43;4.90;;;;;;;;;;5093365;28;20499;-77
2022/04/19 00:43:18;;;;;;;5.80;5.30;;;;;;;;;;5091920;28;20440;-78
2022/04/19 00:45:45;;;;;;;5.37;4.87;;;;;;;;;;5091993;28;20463;-77
2022/04/19 00:48:12;;;;;;;7.40;5.70;;;;;;;;;;5091553;28;20444;-77
2022/04/19 00:50:39;;;;;;;8.97;5.23;;;;;;;;;;5092323;28;20440;-79
2022/04/19 00:53:06;;;;;;;8.60;5.93;;;;;;;;;;5092252;28;20454;-79
2022/04/19 00:55:34;;;;;;;5.97;5.43;;;;;;;;;;5092270;28;20468;-78
2022/04/19 00:58:02;;;;;;;6.63;6.03;;;;;;;;;;5096286;28;20448;-79
2022/04/19 01:00:29;;;;;;;7.10;5.47;;;;;;;;;;5096152;28;20451;-76
2022/04/19 01:02:56;;;;;;;6.10;5.60;;;;;;;;;;5095810;28;20444;-77
2022/04/19 01:05:24;;;;;;;6.27;5.10;;;;;;;;;;5095368;28;20467;-77
2022/04/19 01:07:51;;;;;;;5.10;4.60;;;;;;;;;;5095110;28;20940;-77
2022/04/19 01:10:19;;;;;;;5.93;5.43;;;;;;;;;;5095103;28;20451;-76
2022/04/19 01:15:33;;;;;;;5.43;4.93;;;;;;;;;;5108325;28;20443;-77
2022/04/19 01:18:01;;;;;;;6.33;5.73;;;;;;;;;;5096271;28;20436;-78
2022/04/19 01:20:29;;;;;;;5.60;4.83;;;;;;;;;;5096025;28;20443;-78
2022/04/19 01:22:57;;;;;;;6.97;6.27;;;;;;;;;;5095270;28;20582;-78
2022/04/19 01:25:24;;;;;;;4.93;4.50;;;;;;;;;;5098929;28;20464;-78
2022/04/19 01:27:51;;;;;;;6.13;5.53;;;;;;;;;;5096199;28;20450;-77
2022/04/19 01:30:20;;;;;;;5.77;5.27;;;;;;;;;;5095749;28;20451;-77
2022/04/19 01:32:47;;;;;;;6.07;5.40;;;;;;;;;;5110264;28;20487;-75
2022/04/19 01:35:15;;;;;;;5.60;5.20;;;;;;;;;;5112049;28;20452;-76
2022/04/19 01:37:43;;;;;;;5.50;4.93;;;;;;;;;;5096703;28;20955;-78
2022/04/19 01:40:17;;;;;;;5.93;5.43;;;;;;;;;;5095319;28;20448;-77
2022/04/19 01:42:45;;;;;;;6.30;5.70;;;;;;;;;;5097389;28;20450;-78
2022/04/19 01:45:12;;;;;;;6.20;5.23;;;;;;;;;;5095159;28;20499;-78
2022/04/19 01:47:40;;;;;;;5.40;4.90;;;;;;;;;;5095274;28;20447;-77
2022/04/19 01:50:09;;;;;;;6.10;5.53;;;;;;;;;;5095697;28;20451;-79
2022/04/19 01:52:36;;;;;;;5.60;5.17;;;;;;;;;;5096367;28;20502;-77
2022/04/19 01:55:03;;;;;;;5.90;5.40;;;;;;;;;;5098442;28;20467;-78
2022/04/19 01:57:32;;;;;;;5.60;5.10;;;;;;;;;;5097340;28;20549;-76
2022/04/19 01:59:59;;;;;;;5.13;4.73;;;;;;;;;;5096579;28;20446;-77
2022/04/19 02:02:26;;;;;;;5.43;4.93;;;;;;;;;;5097685;28;20440;-79
2022/04/19 02:04:53;;;;;;;5.83;5.23;;;;;;;;;;5096515;28;20852;-79
2022/04/19 02:07:20;;;;;;;5.13;4.73;;;;;;;;;;5095643;28;20527;-79
2022/04/19 02:09:47;;;;;;;4.60;4.30;;;;;;;;;;5096997;28;20452;-77
2022/04/19 02:12:15;;;;;;;4.57;4.17;;;;;;;;;;5112809;28;20492;-77
2022/04/19 02:14:43;;;;;;;4.60;4.20;;;;;;;;;;5108843;28;20447;-77
2022/04/19 02:17:10;;;;;;;5.00;4.50;;;;;;;;;;5100698;28;20625;-79
2022/04/19 02:19:37;;;;;;;4.77;4.33;;;;;;;;;;5095593;28;20454;-78
2022/04/19 02:22:06;;;;;;;5.30;4.50;;;;;;;;;;5097625;28;20447;-79
2022/04/19 02:24:34;;;;;;;5.03;4.53;;;;;;;;;;5093611;28;20440;-79
2022/04/19 02:27:01;;;;;;;4.83;4.40;;;;;;;;;;5093699;28;20439;-77
2022/04/19 02:29:28;;;;;;;5.07;4.50;;;;;;;;;;5094392;28;20436;-77
2022/04/19 02:31:56;;;;;;;5.20;4.70;;;;;;;;;;5095964;28;21009;-80
2022/04/19 02:34:23;;;;;;;6.47;4.27;;;;;;;;;;5095002;28;20448;-80
2022/04/19 02:36:52;;;;;;;4.47;4.17;;;;;;;;;;5093974;28;20951;-77
2022/04/19 02:39:20;;;;;;;4.33;3.97;;;;;;;;;;5094699;28;20443;-77
2022/04/19 02:41:47;;;;;;;4.67;4.27;;;;;;;;;;5093946;28;20443;-77
2022/04/19 02:44:14;;;;;;;4.20;3.80;;;;;;;;;;5094009;28;20452;-77
2022/04/19 02:46:42;;;;;;;5.03;4.60;;;;;;;;;;5095212;28;20471;-77
2022/04/19 02:49:10;;;;;;;4.87;4.40;;;;;;;;;;5101055;28;20446;-77
2022/04/19 02:51:37;;;;;;;5.13;4.63;;;;;;;;;;5106116;28;21021;-78
2022/04/19 02:54:04;;;;;;;5.30;4.83;;;;;;;;;;5106626;28;20901;-77
2022/04/19 02:56:31;;;;;;;7.37;4.50;;;;;;;;;;5104867;28;20467;-77
2022/04/19 02:58:59;;;;;;;6.10;5.53;;;;;;;;;;5102414;28;20661;-76
2022/04/19 03:01:27;;;;;;;5.63;5.00;;;;;;;;;;5094806;28;20456;-77
2022/04/19 03:03:54;;;;;;;5.13;4.73;;;;;;;;;;5092959;28;20448;-77
2022/04/19 03:06:22;;;;;;;5.87;4.90;;;;;;;;;;5092801;28;20853;-76
2022/04/19 03:08:49;;;;;;;7.23;6.50;;;;;;;;;;5093498;28;20520;-78
2022/04/19 03:11:16;;;;;;;6.10;5.60;;;;;;;;;;5093203;28;20884;-77
2022/04/19 03:13:44;;;;;;;5.73;5.20;;;;;;;;;;5093582;28;20431;-76
2022/04/19 03:16:13;;;;;;;5.43;4.93;;;;;;;;;;5095214;28;20983;-78
2022/04/19 03:18:41;;;;;;;6.00;5.50;;;;;;;;;;5090031;28;20497;-77
2022/04/19 03:21:08;;;;;;;5.80;5.40;;;;;;;;;;5095108;28;21017;-77
2022/04/19 03:29:06;;;;;;;6.83;5.70;;;;;;;;;;5077843;28;20423;-78
2022/04/19 03:31:34;;;;;;;5.67;5.17;;;;;;;;;;5078787;28;20447;-78
2022/04/19 03:34:01;;;;;;;6.60;6.03;;;;;;;;;;5075771;28;20942;-79
2022/04/19 03:36:28;;;;;;;6.77;6.27;;;;;;;;;;5073144;28;20472;-78
2022/04/19 03:38:56;;;;;;;7.10;5.73;;;;;;;;;;5074629;28;20447;-77
2022/04/19 03:41:24;;;;;;;6.20;5.53;;;;;;;;;;5072720;28;20448;-77
2022/04/19 03:43:52;;;;;;;7.90;5.60;;;;;;;;;;5074456;28;20452;-76
2022/04/19 03:46:19;;;;;;;7.00;6.10;;;;;;;;;;5072833;28;20464;-79
2022/04/19 03:48:46;;;;;;;6.77;6.17;;;;;;;;;;5073380;28;20438;-80
2022/04/19 03:51:13;;;;;;;7.13;6.30;;;;;;;;;;5074202;28;20452;-76
2022/04/19 03:53:40;;;;;;;7.70;6.40;;;;;;;;;;5085113;28;20481;-77
2022/04/19 03:56:09;;;;;;;6.60;6.10;;;;;;;;;;5087840;28;20478;-78
2022/04/19 03:58:36;;;;;;;8.17;6.10;;;;;;;;;;5073419;28;20445;-78
2022/04/19 04:01:03;;;;;;;6.50;5.90;;;;;;;;;;5075458;28;20539;-78
2022/04/19 04:03:30;;;;;;;7.30;6.60;;;;;;;;;;5074626;28;20451;-79
2022/04/19 04:05:57;;;;;;;7.60;5.83;;;;;;;;;;5079677;28;20455;-79
2022/04/19 04:08:24;;;;;;;6.60;6.00;;;;;;;;;;5089452;28;20445;-77
2022/04/19 04:10:52;;;;;;;7.27;6.60;;;;;;;;;;5085023;28;20447;-78
2022/04/19 04:13:21;;;;;;;7.57;6.83;;;;;;;;;;5076377;28;20997;-77
2022/04/19 04:15:48;;;;;;;7.23;6.60;;;;;;;;;;5072135;28;20486;-78
2022/04/19 04:18:15;;;;;;;8.10;6.37;;;;;;;;;;5074093;28;20492;-78
2022/04/19 04:20:42;;;;;;;8.00;7.20;;;;;;;;;;5073352;28;20450;-77
2022/04/19 04:23:09;;;;;;;7.53;6.80;;;;;;;;;;5072723;28;20443;-78
2022/04/19 04:25:36;;;;;;;7.60;6.10;;;;;;;;;;5071951;28;20483;-78
2022/04/19 04:28:03;;;;;;;7.10;6.40;;;;;;;;;;5071761;28;20442;-77
2022/04/19 04:30:32;;;;;;;7.37;6.63;;;;;;;;;;5071554;28;20507;-78
2022/04/19 04:32:59;;;;;;;8.97;6.80;;;;;;;;;;5072259;28;20484;-77
2022/04/19 04:35:26;;;;;;;7.00;6.30;;;;;;;;;;5072073;28;20800;-80
2022/04/19 04:37:53;;;;;;;7.37;6.77;;;;;;;;;;5074604;28;20791;-80
2022/04/19 04:40:20;;;;;;;8.00;6.57;;;;;;;;;;5090956;28;20443;-77
2022/04/19 04:42:47;;;;;;;9.27;7.10;;;;;;;;;;5089439;28;20451;-79
2022/04/19 04:45:14;;;;;;;7.20;6.50;;;;;;;;;;5071703;28;21027;-77
2022/04/19 04:50:27;;;;;;;9.20;7.30;;;;;;;;;;5071912;28;20494;-79
2022/04/19 04:52:55;;;;;;;8.23;7.43;;;;;;;;;;5070980;28;20478;-77
2022/04/19 04:55:23;;;;;;;8.27;7.47;;;;;;;;;;5071917;28;20452;-77
2022/04/19 04:57:51;;;;;;;9.73;7.27;;;;;;;;;;5071554;28;20542;-77
2022/04/19 05:00:18;;;;;;;10.70;7.47;;;;;;;;;;5071227;28;20456;-76
2022/04/19 05:02:46;;;;;;;9.40;7.07;;;;;;;;;;5071990;28;20450;-76
2022/04/19 05:05:14;;;;;;;8.70;7.90;;;;;;;;;;5071741;28;20478;-77
2022/04/19 05:07:41;;;;;;;7.70;7.10;;;;;;;;;;5090557;28;20450;-77
2022/04/19 05:10:08;;;;;;;7.17;6.67;;;;;;;;;;5091869;28;20457;-77
2022/04/19 05:12:35;;;;;;;8.87;7.97;;;;;;;;;;5092573;28;20529;-78
2022/04/19 05:15:04;;;;;;;8.93;6.80;;;;;;;;;;5100736;28;20445;-75
2022/04/19 05:17:31;;;;;;;7.90;6.97;;;;;;;;;;5113211;28;20439;-75
2022/04/19 05:19:59;;;;;;;9.10;7.50;;;;;;;;;;5106634;28;20452;-77
2022/04/19 05:22:26;;;;;;;8.30;7.33;;;;;;;;;;5092551;28;20449;-77
2022/04/19 05:24:53;;;;;;;9.00;8.10;;;;;;;;;;5091979;28;20499;-77
2022/04/19 05:27:20;;;;;;;8.07;7.27;;;;;;;;;;5093369;28;20450;-79
2022/04/19 05:29:47;;;;;;;7.10;6.40;;;;;;;;;;5094322;28;20482;-79
2022/04/19 05:32:14;;;;;;;8.70;7.23;;;;;;;;;;5092315;28;20432;-78
2022/04/19 05:34:41;;;;;;;8.23;7.17;;;;;;;;;;5091868;28;20446;-77
2022/04/19 05:37:10;;;;;;;8.87;7.20;;;;;;;;;;5092294;28;20452;-79
2022/04/19 05:39:37;;;;;;;10.40;7.53;;;;;;;;;;5091992;28;20777;-80
2022/04/19 05:42:04;;;;;;;8.30;7.20;;;;;;;;;;5094113;28;20444;-78
2022/04/19 05:44:31;;;;;;;8.10;7.23;;;;;;;;;;5095769;28;20447;-78
2022/04/19 05:46:58;;;;;;;12.93;7.90;;;;;;;;;;5096327;28;20451;-78
2022/04/19 05:49:25;;;;;;;9.53;7.80;;;;;;;;;;5097376;28;20458;-78
2022/04/19 05:51:52;;;;;;;12.47;7.43;;;;;;;;;;5097701;28;20455;-77
2022/04/19 05:54:21;;;;;;;8.13;7.30;;;;;;;;;;5103154;28;20505;-80
2022/04/19 05:56:48;;;;;;;9.80;7.53;;;;;;;;;;5104610;28;20531;-78
2022/04/19 05:59:15;;;;;;;8.73;6.73;;;;;;;;;;5106579;28;20458;-76
2022/04/19 06:07:12;;;;;;;7.60;6.90;;;;;;;;;;5091176;28;20423;-77
2022/04/19 06:09:41;;;;;;;7.77;7.07;;;;;;;;;;5094466;28;20720;-79
2022/04/19 06:12:08;;;;;;;8.50;7.70;;;;;;;;;;5092513;28;20530;-77
2022/04/19 06:14:35;;;;;;;7.60;6.90;;;;;;;;;;5093676;28;20447;-77
2022/04/19 06:17:02;;;;;;;9.40;7.60;;;;;;;;;;5081994;28;20444;-77
2022/04/19 06:19:30;;;;;;;7.77;7.07;;;;;;;;;;5075497;28;20452;-77
2022/04/19 06:21:57;;;;;;;9.10;6.90;;;;;;;;;;5075560;28;20441;-79
2022/04/19 06:24:25;;;;;;;7.13;6.43;;;;;;;;;;5075236;28;21039;-78
2022/04/19 06:26:55;;;;;;;7.70;6.93;;;;;;;;;;5075215;28;20448;-77
2022/04/19 06:29:22;;;;;;;7.70;6.93;;;;;;;;;;5075184;28;20452;-77
2022/04/19 06:31:49;;;;;;;8.20;7.10;;;;;;;;;;5074103;28;20448;-77
2022/04/19 06:34:17;;;;;;;8.27;6.73;;;;;;;;;;5073968;28;20480;-78
2022/04/19 06:36:44;;;;;;;10.57;7.30;;;;;;;;;;5076138;28;20891;-78
2022/04/19 06:39:11;;;;;;;11.60;6.83;;;;;;;;;;5075528;28;20795;-79
2022/04/19 06:41:38;;;;;;;10.43;8.53;;;;;;;;;;5075411;28;21012;-78
2022/04/19 06:44:08;;;;;;;12.50;9.93;;;;;;;;;;5074860;28;20449;-79
2022/04/19 06:46:36;;;;;;;8.83;6.77;;;;;;;;;;5075505;28;20491;-79
2022/04/19 06:49:03;;;;;;;9.10;7.10;;;;;;;;;;5074155;28;20445;-77
2022/04/19 06:51:30;;;;;;;12.00;7.10;;;;;;;;;;5075343;28;20495;-78
2022/04/19 06:53:58;;;;;;;9.07;8.03;;;;;;;;;;5073461;28;20637;-77
2022/04/19 06:56:25;;;;;;;7.90;7.20;;;;;;;;;;5074604;28;20503;-76
2022/04/19 06:58:53;;;;;;;7.50;6.90;;;;;;;;;;5073269;28;20429;-78
2022/04/19 07:01:21;;;;;;;8.20;7.40;;;;;;;;;;5073389;28;20450;-77
2022/04/19 07:03:48;;;;;;;7.97;7.17;;;;;;;;;;5073358;28;20448;-79
2022/04/19 07:06:15;;;;;;;7.63;7.03;;;;;;;;;;5081353;28;20543;-78
2022/04/19 07:08:42;;;;;;;8.43;7.70;;;;;;;;;;5095342;28;20467;-76
2022/04/19 07:11:11;;;;;;;7.27;6.63;;;;;;;;;;5094266;28;20473;-77
2022/04/19 07:13:38;;;;;;;7.63;6.83;;;;;;;;;;5094718;28;20529;-77
2022/04/19 07:16:05;;;;;;;8.37;7.57;;;;;;;;;;5095148;28;20459;-77
2022/04/19 07:18:34;;;;;;;10.13;7.47;;;;;;;;;;5095169;28;20439;-77
2022/04/19 07:26:40;;;;;;;12.07;7.50;;;;;;;;;;5095143;28;20473;-79
2022/04/19 07:29:10;;;;;;;9.43;7.63;;;;;;;;;;5095468;28;20972;-78
2022/04/19 07:31:37;;;;;;;9.27;7.70;;;;;;;;;;5095540;28;20436;-78
2022/04/19 07:34:06;;;;;;;9.13;8.17;;;;;;;;;;5095897;28;20482;-79
2022/04/19 07:36:33;;;;;;;8.23;7.50;;;;;;;;;;5095115;28;20472;-79
2022/04/19 07:39:00;;;;;;;9.93;7.50;;;;;;;;;;5096758;28;20452;-79
2022/04/19 07:41:27;;;;;;;8.90;8.00;;;;;;;;;;5096503;28;20458;-77
2022/04/19 07:43:55;;;;;;;8.00;7.27;;;;;;;;;;5095324;28;20445;-78
2022/04/19 07:46:22;;;;;;;10.27;7.30;;;;;;;;;;5094195;28;20802;-79
2022/04/19 07:48:51;;;;;;;12.27;7.80;;;;;;;;;;5095899;28;20448;-78
2022/04/19 07:51:20;;;;;;;8.37;7.10;;;;;;;;;;5096814;28;20443;-79
2022/04/19 07:53:47;;;;;;;8.50;7.80;;;;;;;;;;5095323;28;20474;-77
2022/04/19 07:56:14;;;;;;;9.47;7.90;;;;;;;;;;5095210;28;20868;-79
2022/04/19 07:58:42;;;;;;;8.23;7.40;;;;;;;;;;5093441;28;20810;-78
2022/04/19 08:01:10;;;;;;;8.33;7.63;;;;;;;;;;5093342;28;20469;-79
2022/04/19 08:03:37;;;;;;;7.67;6.83;;;;;;;;;;5092331;28;20474;-78
2022/04/19 08:06:04;;;;;;;8.37;7.40;;;;;;;;;;5092058;28;20470;-76
2022/04/19 08:08:33;;;;;;;9.87;7.73;;;;;;;;;;5085094;28;20946;-77
2022/04/19 08:11:00;;;;;;;8.27;7.40;;;;;;;;;;5093558;28;20455;-79
2022/04/19 08:13:27;;;;;;;12.47;7.33;;;;;;;;;;5092412;28;20475;-78
2022/04/19 08:15:54;;;;;;;8.93;7.83;;;;;;;;;;5082091;28;20469;-77
2022/04/19 08:18:21;;;;;;;8.03;7.10;;;;;;;;;;5074291;28;20445;-77
2022/04/19 08:20:48;;;;;;;8.37;7.40;;;;;;;;;;5074296;28;20449;-78
2022/04/19 08:23:16;;;;;;;10.80;7.90;;;;;;;;;;5082712;28;20452;-79
2022/04/19 08:25:45;;;;;;;11.67;7.57;;;;;;;;;;5084731;28;20479;-77
2022/04/19 08:28:12;;;;;;;8.00;7.00;;;;;;;;;;5086224;28;20476;-77
2022/04/19 08:30:39;;;;;;;7.37;6.67;;;;;;;;;;5078105;28;20527;-78
2022/04/19 08:33:07;;;;;;;8.00;7.30;;;;;;;;;;5078977;28;20444;-79
2022/04/19 08:35:34;;;;;;;9.47;7.67;;;;;;;;;;5076857;28;20456;-77
2022/04/19 08:38:01;;;;;;;9.30;7.20;;;;;;;;;;5076164;28;20456;-77
2022/04/19 08:40:28;;;;;;;7.90;6.87;;;;;;;;;;5074772;28;20445;-77
2022/04/19 08:42:57;;;;;;;7.77;6.90;;;;;;;;;;5074936;28;20447;-78
2022/04/19 08:45:26;;;;;;;8.00;7.30;;;;;;;;;;5075331;28;20891;-77
2022/04/19 08:47:53;;;;;;;9.13;6.90;;;;;;;;;;5073704;28;20932;-78
2022/04/19 08:50:21;;;;;;;7.33;6.60;;;;;;;;;;5073802;28;20436;-78
2022/04/19 08:57:29;;;;;;;8.17;7.37;;;;;;;;;;5073945;28;20452;-78
2022/04/19 08:58:22;;;;;;;6.90;6.27;;;;;;;;;;5073555;28;20443;-78
2022/04/19 09:00:50;;;;;;;7.80;6.20;;;;;;;;;;5073957;28;20433;-78
2022/04/19 09:03:20;;;;;;;9.13;6.20;;;;;;;;;;5073049;28;20436;-79
2022/04/19 09:05:50;;;;;;;9.40;6.10;;;;;;;;;;5076452;28;20521;-77
2022/04/19 09:08:18;;;;;;;10.50;6.37;;;;;;;;;;5092691;28;20439;-78
2022/04/19 09:10:45;;;;;;;6.77;6.10;;;;;;;;;;5091913;28;20447;-78
2022/04/19 09:13:14;;;;;;;7.30;5.60;;;;;;;;;;5092728;28;20923;-79
2022/04/19 09:15:43;;;;;;;9.77;5.80;;;;;;;;;;5093986;28;20501;-78
2022/04/19 09:18:14;;;;;;;9.70;7.40;;;;;;;;;;5096824;28;20450;-77
2022/04/19 09:20:41;;;;;;;5.97;5.37;;;;;;;;;;5097466;28;20440;-77
2022/04/19 09:23:10;;;;;;;6.77;5.23;;;;;;;;;;5095783;28;20439;-77
2022/04/19 09:25:37;;;;;;;5.97;5.37;;;;;;;;;;5096834;28;20520;-78
2022/04/19 09:28:16;;;;;;;6.00;5.40;;;;;;;;;;5096406;28;20819;-78
2022/04/19 09:30:44;;;;;;;6.53;4.90;;;;;;;;;;5097144;28;20527;-77
2022/04/19 09:33:12;;;;;;;4.70;4.13;;;;;;;;;;5095537;28;20440;-78
2022/04/19 09:35:40;;;;;;;4.77;4.20;;;;;;;;;;5095771;28;20459;-77
2022/04/19 09:38:08;;;;;;;6.57;4.73;;;;;;;;;;5097779;28;20832;-77
2022/04/19 09:40:36;;;;;;;5.33;4.93;;;;;;;;;;5103868;28;20447;-77
2022/04/19 09:43:13;;;;;;;7.83;5.70;;;;;;;;;;5103991;28;20455;-77
2022/04/19 09:46:03;;;;;;;7.30;5.63;;;;;;;;;;5102792;28;20463;-77
2022/04/19 09:48:32;;;;;;;5.40;4.67;;;;;;;;;;5099248;28;20891;-78
2022/04/19 09:51:02;;;;;;;5.60;5.20;;;;;;;;;;5094346;28;20445;-78
2022/04/19 09:53:30;;;;;;;5.90;5.30;;;;;;;;;;5076957;28;20451;-77
2022/04/19 09:55:58;;;;;;;7.00;5.73;;;;;;;;;;5078341;28;20452;-77
2022/04/19 09:58:25;;;;;;;5.40;4.90;;;;;;;;;;5077474;28;20453;-76
2022/04/19 10:00:53;;;;;;;5.50;5.10;;;;;;;;;;5076818;28;20436;-79
2022/04/19 10:09:05;;;;;;;4.13;3.70;;;;;;;;;;5066763;28;20528;-78
2022/04/19 10:11:33;;;;;;;4.63;4.00;;;;;;;;;;5090303;28;20459;-80
2022/04/19 10:14:00;;;;;;;6.20;3.77;;;;;;;;;;5098664;28;20467;-78
2022/04/19 10:16:30;;;;;;;4.57;3.13;;;;;;;;;;5097704;28;20468;-79
2022/04/19 10:18:58;;;;;;;3.40;3.10;;;;;;;;;;5095301;28;20535;-79
2022/04/19 10:21:30;;;;;;;4.23;3.67;;;;;;;;;;5090486;28;20475;-79
2022/04/19 10:24:10;;;;;;;3.90;3.60;;;;;;;;;;5089519;28;20440;-78
2022/04/19 10:26:43;;;;;;;3.90;3.60;;;;;;;;;;5096248;28;20993;-77
2022/04/19 10:29:16;;;;;;;3.83;3.50;;;;;;;;;;5096091;28;20455;-78
2022/04/19 10:31:54;;;;;;;4.50;3.57;;;;;;;;;;5094860;28;20448;-77
2022/04/19 10:34:24;;;;;;;3.80;3.50;;;;;;;;;;5095060;28;20479;-78
2022/04/19 10:36:54;;;;;;;3.73;3.40;;;;;;;;;;5089664;28;20483;-77
2022/04/19 10:39:22;;;;;;;3.80;3.47;;;;;;;;;;5096513;28;20459;-78
2022/04/19 10:41:52;;;;;;;4.33;3.93;;;;;;;;;;5084907;28;20496;-77
2022/04/19 10:44:28;;;;;;;5.10;4.27;;;;;;;;;;5075626;28;20445;-77
2022/04/19 10:47:05;;;;;;;3.73;3.43;;;;;;;;;;5075670;28;20877;-77
2022/04/19 10:49:32;;;;;;;4.17;3.83;;;;;;;;;;5075609;28;20437;-80
2022/04/19 10:52:01;;;;;;;5.33;4.30;;;;;;;;;;5073434;28;20448;-78
2022/04/19 10:54:46;;;;;;;4.17;3.77;;;;;;;;;;5073953;28;20487;-78
2022/04/19 11:00:01;;;;;;;5.20;4.37;;;;;;;;;;5083883;28;20747;-77
2022/04/19 11:02:37;;;;;;;6.43;4.70;;;;;;;;;;5090496;28;20672;-78
2022/04/19 11:05:04;;;;;;;4.67;4.27;;;;;;;;;;5084387;28;21012;-77
2022/04/19 11:07:43;;;;;;;4.53;3.80;;;;;;;;;;5084279;28;20456;-77
2022/04/19 11:10:10;;;;;;;5.37;4.87;;;;;;;;;;5089005;28;20830;-77
2022/04/19 11:12:52;;;;;;;4.57;4.17;;;;;;;;;;5091408;28;20458;-76
2022/04/19 11:15:21;;;;;;;5.77;4.80;;;;;;;;;;5072780;28;20858;-77
2022/04/19 11:17:48;;;;;;;5.53;4.67;;;;;;;;;;5073927;28;20444;-78
2022/04/19 11:20:16;;;;;;;5.60;5.20;;;;;;;;;;5072871;28;20451;-77
2022/04/19 11:22:47;;;;;;;5.10;4.60;;;;;;;;;;5072247;28;20539;-76
2022/04/19 11:25:14;;;;;;;4.73;4.27;;;;;;;;;;5079845;28;20491;-77
2022/04/19 11:30:47;;;;;;;5.30;4.60;;;;;;;;;;5070570;28;20428;-77
2022/04/19 11:33:24;;;;;;;4.73;4.33;;;;;;;;;;5071806;28;20441;-78
2022/04/19 11:35:59;;;;;;;5.20;4.77;;;;;;;;;;5073543;28;20964;-77
2022/04/19 11:38:27;;;;;;;5.00;4.50;;;;;;;;;;5075031;28;20883;-77
2022/04/19 11:49:10;;;;;;;5.90;4.80;;;;;;;;;;5072343;28;20462;-77
2022/04/19 11:51:38;;;;;;;4.83;4.43;;;;;;;;;;5071660;28;20832;-77
2022/04/19 11:54:08;;;;;;;5.40;5.00;;;;;;;;;;5071048;28;20960;-76
2022/04/19 11:56:36;;;;;;;6.17;4.70;;;;;;;;;;5071935;28;20806;-77
2022/04/19 11:59:03;;;;;;;5.30;4.73;;;;;;;;;;5073016;28;20464;-76
2022/04/19 12:01:31;;;;;;;6.10;5.37;;;;;;;;;;5072502;28;20448;-77
2022/04/19 12:03:58;;;;;;;5.03;4.47;;;;;;;;;;5076754;28;20867;-77
2022/04/19 12:06:25;;;;;;;5.40;4.67;;;;;;;;;;5080548;28;20513;-77
2022/04/19 12:08:53;;;;;;;5.90;5.30;;;;;;;;;;5092027;28;20451;-77
2022/04/19 12:11:22;;;;;;;6.23;5.73;;;;;;;;;;5090361;28;20448;-77
2022/04/19 12:13:50;;;;;;;5.60;5.10;;;;;;;;;;5091046;28;20456;-76
2022/04/19 12:16:30;;;;;;;5.17;4.67;;;;;;;;;;5087986;28;20506;-76
2022/04/19 12:18:59;;;;;;;5.50;5.00;;;;;;;;;;5083878;28;20454;-77
2022/04/19 12:21:37;;;;;;;6.20;4.13;;;;;;;;;;5101950;28;20839;-77
2022/04/19 12:24:05;;;;;;;5.60;5.03;;;;;;;;;;5097576;28;20452;-77
2022/04/19 12:26:33;;;;;;;7.13;5.40;;;;;;;;;;5096919;28;20831;-76
2022/04/19 12:29:11;;;;;;;5.73;5.23;;;;;;;;;;5080969;28;20447;-78
2022/04/19 12:31:39;;;;;;;5.23;4.83;;;;;;;;;;5095576;28;20543;-78
2022/04/19 12:34:06;;;;;;;5.20;4.57;;;;;;;;;;5096385;28;20447;-78
2022/04/19 12:36:42;;;;;;;5.70;5.20;;;;;;;;;;5094221;28;20472;-78
2022/04/19 12:39:09;;;;;;;6.30;5.07;;;;;;;;;;5081636;28;20524;-78
2022/04/19 12:41:39;;;;;;;5.40;4.90;;;;;;;;;;5087945;28;20602;-78
2022/04/19 12:44:07;;;;;;;5.60;4.90;;;;;;;;;;5093177;28;20459;-77
2022/04/19 12:46:39;;;;;;;4.90;4.50;;;;;;;;;;5093558;28;20460;-78
2022/04/19 12:49:06;;;;;;;5.30;4.90;;;;;;;;;;5110322;28;20428;-76
2022/04/19 12:51:35;;;;;;;5.03;4.63;;;;;;;;;;5106703;28;20428;-76
2022/04/19 12:54:06;;;;;;;5.43;4.83;;;;;;;;;;5103616;28;20432;-76
2022/04/19 12:56:33;;;;;;;5.17;4.73;;;;;;;;;;5098244;28;20449;-74
2022/04/19 12:59:02;;;;;;;5.70;5.20;;;;;;;;;;5097956;28;20435;-76
2022/04/19 13:01:29;;;;;;;5.93;5.33;;;;;;;;;;5097073;28;20436;-75
2022/04/19 13:03:56;;;;;;;5.07;4.67;;;;;;;;;;5096163;28;20428;-77
2022/04/19 13:14:38;;;;;;;4.80;4.20;;;;;;;;;;5113928;28;20501;-77
2022/04/19 13:17:06;;;;;;;5.07;4.43;;;;;;;;;;5115347;28;20423;-77
2022/04/19 13:19:33;;;;;;;5.70;5.20;;;;;;;;;;5104150;28;20450;-77
2022/04/19 13:22:01;;;;;;;5.80;5.20;;;;;;;;;;5105301;28;20522;-78
2022/04/19 13:24:28;;;;;;;5.03;4.57;;;;;;;;;;5104074;28;20440;-77
2022/04/19 13:26:55;;;;;;;5.50;5.10;;;;;;;;;;5113444;28;20463;-77
2022/04/19 13:29:23;;;;;;;8.07;4.83;;;;;;;;;;5114739;28;20432;-76
2022/04/19 13:31:52;;;;;;;5.00;4.50;;;;;;;;;;5113354;28;20466;-78
2022/04/19 13:34:19;;;;;;;5.80;5.30;;;;;;;;;;5096696;28;20443;-77
2022/04/19 13:36:46;;;;;;;4.90;4.50;;;;;;;;;;5096600;28;20467;-75
2022/04/19 13:39:14;;;;;;;5.20;4.73;;;;;;;;;;5096755;28;20432;-77
2022/04/19 13:41:42;;;;;;;4.53;4.13;;;;;;;;;;5098898;28;20440;-77
2022/04/19 13:44:10;;;;;;;4.13;3.83;;;;;;;;;;5104406;28;20436;-77
2022/04/19 13:46:38;;;;;;;4.93;4.53;;;;;;;;;;5109280;28;20455;-77
2022/04/19 13:49:06;;;;;;;5.00;4.60;;;;;;;;;;5109050;28;20439;-76
2022/04/19 13:51:35;;;;;;;5.30;4.90;;;;;;;;;;5106776;28;20456;-77
2022/04/19 13:54:02;;;;;;;4.53;4.13;;;;;;;;;;5099166;28;20530;-77
2022/04/19 13:56:30;;;;;;;5.30;4.80;;;;;;;;;;5095929;28;20479;-77
2022/04/19 13:58:57;;;;;;;5.70;5.30;;;;;;;;;;5096550;28;20471;-79
2022/04/19 14:01:25;;;;;;;5.20;4.80;;;;;;;;;;5098425;28;20816;-78
2022/04/19 14:03:52;;;;;;;5.47;5.07;;;;;;;;;;5098150;28;20452;-77
2022/04/19 14:06:21;;;;;;;5.90;5.50;;;;;;;;;;5099092;28;20444;-78
2022/04/19 14:08:48;;;;;;;5.20;4.80;;;;;;;;;;5095848;28;20452;-79
2022/04/19 14:11:15;;;;;;;6.20;5.20;;;;;;;;;;5097946;28;20424;-76
2022/04/19 14:13:42;;;;;;;4.83;4.47;;;;;;;;;;5095841;28;20497;-77
2022/04/19 14:16:10;;;;;;;5.70;5.30;;;;;;;;;;5094822;28;20998;-78
2022/04/19 14:18:37;;;;;;;6.10;5.70;;;;;;;;;;5095093;28;20455;-76
2022/04/19 14:21:04;;;;;;;4.80;4.40;;;;;;;;;;5094078;28;20985;-78
2022/04/19 14:23:33;;;;;;;4.97;4.57;;;;;;;;;;5094436;28;20447;-77
2022/04/19 14:26:00;;;;;;;5.20;4.90;;;;;;;;;;5088775;28;20463;-77
2022/04/19 14:33:53;;;;;;;5.00;4.60;;;;;;;;;;5075514;28;20454;-77
2022/04/19 14:36:20;;;;;;;6.00;5.50;;;;;;;;;;5075230;28;20491;-79
2022/04/19 14:38:49;;;;;;;6.90;4.63;;;;;;;;;;5076195;28;20457;-78
2022/04/19 14:41:18;;;;;;;4.50;4.20;;;;;;;;;;5075036;28;20447;-77
2022/04/19 14:43:45;;;;;;;5.23;4.13;;;;;;;;;;5074128;28;20449;-80
2022/04/19 14:46:12;;;;;;;4.87;4.37;;;;;;;;;;5074460;28;21033;-78
2022/04/19 14:48:39;;;;;;;4.17;3.97;;;;;;;;;;5073896;28;20985;-78
2022/04/19 14:53:52;;;;;;;5.03;4.47;;;;;;;;;;5074162;28;20780;-78
2022/04/19 14:56:20;;;;;;;6.07;4.50;;;;;;;;;;5073978;28;21010;-77
2022/04/19 14:58:47;;;;;;;4.30;4.00;;;;;;;;;;5074697;28;20463;-78
2022/04/19 15:01:15;;;;;;;4.90;4.40;;;;;;;;;;5074388;28;20437;-79
2022/04/19 15:03:42;;;;;;;4.57;4.27;;;;;;;;;;5075508;28;20447;-79
2022/04/19 15:06:09;;;;;;;4.77;4.30;;;;;;;;;;5080809;28;20455;-78
2022/04/19 15:08:36;;;;;;;3.47;3.17;;;;;;;;;;5094959;28;20858;-79
2022/04/19 15:11:05;;;;;;;4.23;3.90;;;;;;;;;;5096461;28;20444;-77
2022/04/19 15:13:32;;;;;;;4.47;4.17;;;;;;;;;;5095690;28;20436;-78
2022/04/19 15:15:59;;;;;;;4.50;4.10;;;;;;;;;;5093868;28;20478;-77
2022/04/19 15:18:26;;;;;;;4.50;4.10;;;;;;;;;;5093945;28;20448;-77
2022/04/19 15:20:53;;;;;;;4.83;3.93;;;;;;;;;;5093400;28;20954;-77
2022/04/19 15:23:21;;;;;;;4.20;3.87;;;;;;;;;;5093267;28;20486;-77
2022/04/19 15:25:48;;;;;;;3.10;2.90;;;;;;;;;;5093282;28;20459;-78
2022/04/19 15:28:17;;;;;;;4.20;3.57;;;;;;;;;;5093121;28;20444;-76
2022/04/19 15:30:44;;;;;;;4.00;3.60;;;;;;;;;;5092489;28;20466;-76
2022/04/19 15:33:12;;;;;;;3.93;3.37;;;;;;;;;;5092042;28;20448;-76
2022/04/19 15:35:39;;;;;;;3.50;3.20;;;;;;;;;;5092804;28;20471;-77
2022/04/19 15:38:07;;;;;;;3.47;3.27;;;;;;;;;;5093748;28;20447;-76
2022/04/19 15:40:34;;;;;;;3.60;3.30;;;;;;;;;;5098779;28;20475;-75
2022/04/19 15:43:03;;;;;;;2.97;2.77;;;;;;;;;;5096846;28;20451;-77
2022/04/19 15:45:33;;;;;;;5.50;3.70;;;;;;;;;;5095361;28;20551;-77
2022/04/19 15:48:01;;;;;;;3.90;3.50;;;;;;;;;;5093902;28;20476;-76
2022/04/19 15:50:28;;;;;;;2.80;2.60;;;;;;;;;;5094106;28;20532;-77